createdAt,value
2023-01-13T00:01:58.998Z,26.20
2023-01-13T00:04:32.007Z,36.60
2023-01-13T00:07:03.830Z,25.30
2023-01-13T00:09:35.640Z,29.80
2023-01-13T00:12:08.202Z,40.10
2023-01-13T00:14:40.099Z,29.80
2023-01-13T00:17:11.956Z,29.10
2023-01-13T00:19:44.975Z,31.10
2023-01-13T00:22:16.872Z,37.70
2023-01-13T00:24:48.733Z,37.50
2023-01-13T00:27:20.551Z,43.10
2023-01-13T00:29:52.159Z,45.50
2023-01-13T00:32:24.515Z,27.60
2023-01-13T00:34:56.529Z,28.90
2023-01-13T00:37:28.551Z,32.50
2023-01-13T00:40:00.826Z,29.60
2023-01-13T00:42:50.166Z,30.50
2023-01-13T00:45:22.415Z,22.20
2023-01-13T00:47:54.789Z,21.00
2023-01-13T00:50:27.467Z,22.00
2023-01-13T00:53:01.063Z,15.70
2023-01-13T00:55:36.099Z,21.30
2023-01-13T00:58:08.273Z,22.00
2023-01-13T01:00:40.010Z,30.30
2023-01-13T01:03:16.188Z,23.90
2023-01-13T01:05:48.658Z,26.40
2023-01-13T01:08:20.721Z,44.20
2023-01-13T01:10:52.796Z,49.60
2023-01-13T01:13:24.858Z,33.10
2023-01-13T01:15:56.559Z,30.20
2023-01-13T01:20:58.298Z,23.60
2023-01-13T01:26:02.924Z,22.10
2023-01-13T01:28:34.712Z,31.80
2023-01-13T01:31:10.723Z,28.80
2023-01-13T01:33:42.570Z,17.70
2023-01-13T01:36:15.481Z,21.70
2023-01-13T01:38:47.250Z,20.80
2023-01-13T01:41:20.112Z,24.80
2023-01-13T01:44:04.006Z,29.70
2023-01-13T01:46:37.216Z,15.70
2023-01-13T01:49:14.236Z,29.40
2023-01-13T01:51:50.291Z,22.60
2023-01-13T01:54:25.058Z,31.20
2023-01-13T01:56:56.857Z,21.10
2023-01-13T01:59:31.267Z,36.20
2023-01-13T02:02:03.599Z,32.00
2023-01-13T02:04:38.393Z,26.40
2023-01-13T02:07:10.180Z,28.50
2023-01-13T02:09:41.895Z,40.80
2023-01-13T02:12:32.580Z,36.50
2023-01-13T02:15:06.210Z,17.30
2023-01-13T02:18:01.601Z,24.30
2023-01-13T02:21:08.523Z,27.60
2023-01-13T02:24:17.489Z,29.00
2023-01-13T02:27:18.578Z,20.10
2023-01-13T02:30:16.004Z,35.90
2023-01-13T02:32:52.661Z,24.40
2023-01-13T02:35:25.945Z,28.40
2023-01-13T02:37:57.800Z,36.40
2023-01-13T02:40:31.081Z,28.00
2023-01-13T02:43:22.269Z,35.10
2023-01-13T02:45:55.349Z,50.70
2023-01-13T02:48:27.402Z,37.80
2023-01-13T02:51:00.423Z,39.60
2023-01-13T02:53:34.749Z,44.80
2023-01-13T02:56:06.889Z,31.30
2023-01-13T02:58:39.257Z,43.40
2023-01-13T03:01:11.011Z,32.80
2023-01-13T03:03:44.077Z,31.20
2023-01-13T03:06:26.719Z,27.50
2023-01-13T03:09:00.266Z,35.70
2023-01-13T03:11:33.103Z,36.00
2023-01-13T03:14:19.534Z,36.90
2023-01-13T03:16:58.220Z,28.00
2023-01-13T03:19:35.752Z,37.00
2023-01-13T03:22:12.371Z,44.90
2023-01-13T03:24:46.241Z,36.60
2023-01-13T03:27:19.806Z,26.20
2023-01-13T03:29:52.356Z,32.90
2023-01-13T03:32:26.003Z,34.90
2023-01-13T03:35:00.552Z,34.40
2023-01-13T03:37:34.810Z,32.90
2023-01-13T03:40:09.110Z,43.10
2023-01-13T03:42:41.378Z,42.40
2023-01-13T03:45:14.700Z,43.90
2023-01-13T03:47:49.242Z,33.50
2023-01-13T03:50:22.239Z,40.10
2023-01-13T03:52:55.050Z,34.90
2023-01-13T03:55:28.658Z,46.20
2023-01-13T03:58:01.774Z,32.30
2023-01-13T04:00:46.075Z,43.70
2023-01-13T04:03:20.029Z,40.90
2023-01-13T04:05:52.910Z,29.20
2023-01-13T04:08:25.910Z,36.70
2023-01-13T04:10:59.665Z,40.60
2023-01-13T04:13:33.134Z,31.30
2023-01-13T04:16:04.876Z,36.60
2023-01-13T04:18:37.905Z,33.20
2023-01-13T04:21:10.443Z,41.30
2023-01-13T04:23:42.078Z,22.10
2023-01-13T04:26:13.804Z,30.30
2023-01-13T04:28:45.460Z,50.10
2023-01-13T04:31:17.404Z,45.20
2023-01-13T04:33:49.126Z,36.30
2023-01-13T04:36:25.338Z,47.70
2023-01-13T04:38:57.426Z,29.50
2023-01-13T04:41:49.262Z,48.50
2023-01-13T04:46:51.705Z,31.40
2023-01-13T04:49:23.633Z,43.60
2023-01-13T04:51:55.408Z,35.60
2023-01-13T04:54:27.193Z,45.00
2023-01-13T04:56:59.000Z,30.90
2023-01-13T04:59:30.793Z,43.00
2023-01-13T05:02:02.663Z,49.40
2023-01-13T05:04:34.438Z,34.30
2023-01-13T05:07:06.624Z,44.50
2023-01-13T05:09:38.672Z,32.60
2023-01-13T05:12:28.479Z,35.60
2023-01-13T05:15:17.648Z,34.60
2023-01-13T05:17:49.380Z,43.80
2023-01-13T05:20:22.101Z,40.50
2023-01-13T05:23:11.225Z,34.40
2023-01-13T05:25:44.617Z,44.90
2023-01-13T05:28:16.414Z,39.90
2023-01-13T05:30:49.545Z,33.60
2023-01-13T05:33:22.024Z,42.90
2023-01-13T05:35:53.475Z,27.20
2023-01-13T05:38:24.931Z,35.00
2023-01-13T05:41:13.423Z,49.90
2023-01-13T05:43:44.918Z,22.30
2023-01-13T05:46:17.876Z,29.70
2023-01-13T05:48:49.451Z,22.40
2023-01-13T05:51:26.464Z,49.50
2023-01-13T05:53:59.507Z,44.00
2023-01-13T05:56:31.068Z,35.10
2023-01-13T06:01:32.278Z,52.60
2023-01-13T06:06:33.503Z,41.30
2023-01-13T06:09:05.341Z,38.50
2023-01-13T06:11:36.994Z,23.50
2023-01-13T06:16:38.872Z,29.10
2023-01-13T06:19:13.310Z,30.20
2023-01-13T06:21:45.108Z,34.40
2023-01-13T06:24:16.703Z,39.40
2023-01-13T06:26:49.024Z,30.80
2023-01-13T06:29:20.723Z,31.30
2023-01-13T06:31:52.719Z,37.60
2023-01-13T06:34:24.413Z,23.70
2023-01-13T06:36:56.171Z,34.20
2023-01-13T06:39:30.915Z,28.40
2023-01-13T06:42:20.253Z,43.40
2023-01-13T06:44:51.748Z,43.70
2023-01-13T06:47:23.940Z,28.80
2023-01-13T06:49:55.319Z,28.20
2023-01-13T06:52:27.578Z,30.70
2023-01-13T06:54:59.095Z,23.80
2023-01-13T07:00:00.551Z,23.50
2023-01-13T07:02:32.197Z,29.00
2023-01-13T07:05:03.955Z,33.00
2023-01-13T07:07:35.496Z,39.90
2023-01-13T07:10:09.929Z,39.30
2023-01-13T07:12:56.055Z,35.20
2023-01-13T07:15:30.588Z,24.60
2023-01-13T07:18:03.313Z,23.80
2023-01-13T07:20:34.778Z,24.80
2023-01-13T07:23:06.343Z,33.00
2023-01-13T07:25:37.871Z,28.00
2023-01-13T07:28:09.352Z,29.80
2023-01-13T07:33:10.480Z,26.00
2023-01-13T07:38:11.604Z,23.20
2023-01-13T07:40:43.032Z,19.40
2023-01-13T07:43:33.629Z,28.00
2023-01-13T07:46:06.347Z,21.30
2023-01-13T07:48:38.360Z,27.20
2023-01-13T07:51:11.328Z,36.00
2023-01-13T07:53:44.216Z,28.80
2023-01-13T07:56:15.845Z,24.00
2023-01-13T07:58:51.199Z,26.70
2023-01-13T08:03:09.567Z,16.60
2023-01-13T08:05:43.780Z,34.30
2023-01-13T08:08:15.185Z,25.50
2023-01-13T08:10:46.680Z,22.40
2023-01-13T08:13:20.735Z,20.70
2023-01-13T08:15:54.366Z,34.30
2023-01-13T08:18:27.278Z,20.40
2023-01-13T08:20:58.896Z,24.10
2023-01-13T08:23:30.690Z,30.60
2023-01-13T08:26:04.832Z,27.60
2023-01-13T08:28:36.236Z,18.90
2023-01-13T08:31:09.495Z,21.70
2023-01-13T08:33:41.646Z,18.60
2023-01-13T08:36:14.121Z,18.70
2023-01-13T08:38:45.606Z,26.50
2023-01-13T08:41:38.142Z,20.40
2023-01-13T08:44:09.653Z,32.70
2023-01-13T08:49:11.285Z,23.00
2023-01-13T08:51:42.888Z,16.20
2023-01-13T08:56:45.226Z,24.90
2023-01-13T08:59:18.319Z,20.50
2023-01-13T09:01:49.947Z,31.80
2023-01-13T09:04:23.111Z,26.80
2023-01-13T09:06:55.331Z,20.00
2023-01-13T09:09:27.881Z,21.40
2023-01-13T09:12:17.050Z,26.80
2023-01-13T09:14:48.711Z,27.80
2023-01-13T09:17:20.467Z,32.10
2023-01-13T09:19:51.897Z,27.60
2023-01-13T09:22:27.234Z,29.80
2023-01-13T09:24:59.065Z,33.10
2023-01-13T09:30:00.502Z,36.80
2023-01-13T09:32:32.073Z,27.10
2023-01-13T09:37:35.022Z,38.30
2023-01-13T09:40:07.703Z,35.20
2023-01-13T09:43:02.628Z,22.60
2023-01-13T09:45:36.457Z,32.20
2023-01-13T09:48:12.056Z,24.60
2023-01-13T09:50:53.951Z,24.60
2023-01-13T09:53:27.767Z,29.00
2023-01-13T09:55:59.313Z,21.80
2023-01-13T09:58:31.487Z,23.10
2023-01-13T10:01:20.684Z,19.60
2023-01-13T10:03:52.970Z,30.10
2023-01-13T10:08:56.251Z,17.50
2023-01-13T10:11:48.431Z,21.60
2023-01-13T10:14:21.490Z,14.80
2023-01-13T10:16:56.509Z,26.00
2023-01-13T10:19:30.649Z,21.70
2023-01-13T10:22:29.998Z,24.60
2023-01-13T10:25:18.393Z,19.10
2023-01-13T10:27:51.543Z,19.70
2023-01-13T10:30:27.819Z,25.60
2023-01-13T10:33:00.387Z,20.10
2023-01-13T10:35:59.671Z,20.00
2023-01-13T10:38:32.488Z,24.70
2023-01-13T10:55:28.966Z,14.80
2023-01-13T10:58:01.260Z,21.70
2023-01-13T11:00:34.387Z,19.30
2023-01-13T11:03:22.189Z,29.90
2023-01-13T11:05:57.404Z,29.40
2023-01-13T11:08:30.447Z,19.30
2023-01-13T11:11:02.856Z,27.10
2023-01-13T11:13:37.187Z,20.70
2023-01-13T11:16:12.280Z,24.10
2023-01-13T11:19:02.231Z,25.30
2023-01-13T11:21:36.382Z,22.90
2023-01-13T11:24:12.571Z,22.40
2023-01-13T11:26:53.163Z,20.40
2023-01-13T11:29:31.287Z,26.80
2023-01-13T11:32:07.496Z,10.70
2023-01-13T11:34:41.644Z,14.70
2023-01-13T11:37:19.573Z,18.80
2023-01-13T11:39:55.614Z,22.90
2023-01-13T11:42:29.516Z,37.30
2023-01-13T11:45:07.179Z,28.00
2023-01-13T11:47:38.827Z,25.80
2023-01-13T11:52:56.458Z,22.50
2023-01-13T11:55:33.137Z,24.40
2023-01-13T11:58:12.891Z,19.90
2023-01-13T12:01:05.749Z,18.40
2023-01-13T12:03:39.979Z,21.80
2023-01-13T12:06:25.634Z,25.40
2023-01-13T12:09:12.098Z,17.30
2023-01-13T12:12:06.047Z,12.40
2023-01-13T12:14:41.749Z,20.80
2023-01-13T12:17:18.909Z,22.10
2023-01-13T12:19:51.275Z,19.40
2023-01-13T12:22:24.950Z,17.90
2023-01-13T12:24:57.198Z,17.70
2023-01-13T12:27:35.656Z,27.20
2023-01-13T12:30:14.730Z,30.30
2023-01-13T12:32:46.135Z,28.70
2023-01-13T12:35:30.450Z,17.80
2023-01-13T12:38:05.633Z,23.10
2023-01-13T12:40:48.987Z,28.80
2023-01-13T12:43:38.973Z,19.30
2023-01-13T12:46:57.320Z,26.80
2023-01-13T12:49:30.089Z,23.50
2023-01-13T12:52:20.103Z,25.10
2023-01-13T12:55:21.260Z,25.70
2023-01-13T12:58:21.640Z,30.80
2023-01-13T13:01:01.626Z,26.90
2023-01-13T13:03:37.272Z,27.30
2023-01-13T13:06:17.557Z,20.50
2023-01-13T13:09:03.674Z,23.90
2023-01-13T13:12:03.483Z,11.40
2023-01-13T13:15:05.491Z,19.40
2023-01-13T13:17:59.337Z,20.30
2023-01-13T13:21:05.200Z,15.40
2023-01-13T13:23:48.623Z,30.00
2023-01-13T13:26:25.175Z,42.10
2023-01-13T13:29:07.134Z,51.90
2023-01-13T13:31:48.384Z,35.00
2023-01-13T13:34:28.416Z,26.30
2023-01-13T13:37:28.706Z,36.20
2023-01-13T13:40:17.727Z,33.50
2023-01-13T13:43:10.876Z,26.70
2023-01-13T13:46:08.373Z,23.70
2023-01-13T13:48:39.836Z,29.10
2023-01-13T13:51:26.357Z,27.30
2023-01-13T13:53:59.569Z,25.90
2023-01-13T13:56:31.031Z,51.40
2023-01-13T13:59:02.459Z,49.60
2023-01-13T14:01:36.857Z,55.40
2023-01-13T14:04:12.618Z,43.30
2023-01-13T14:06:55.033Z,40.40
2023-01-13T14:09:28.861Z,31.50
2023-01-13T14:12:06.853Z,32.70
2023-01-13T14:14:38.352Z,24.30
2023-01-13T14:17:17.945Z,21.70
2023-01-13T14:19:53.761Z,23.30
2023-01-13T14:22:25.463Z,21.90
2023-01-13T14:24:58.174Z,33.50
2023-01-13T14:27:30.084Z,37.40
2023-01-13T14:30:01.907Z,38.40
2023-01-13T14:32:36.775Z,35.50
2023-01-13T14:35:10.632Z,24.90
2023-01-13T14:37:43.089Z,28.00
2023-01-13T14:40:47.046Z,33.60
2023-01-13T14:43:27.643Z,24.70
2023-01-13T14:46:00.297Z,32.40
2023-01-13T14:48:36.160Z,30.70
2023-01-13T14:51:10.025Z,29.90
2023-01-13T14:53:46.490Z,23.70
2023-01-13T14:56:43.764Z,28.80
2023-01-13T14:59:36.418Z,14.50
2023-01-13T15:02:36.144Z,35.70
2023-01-13T15:05:42.862Z,33.60
2023-01-13T15:08:40.345Z,20.90
2023-01-13T15:11:24.285Z,40.40
2023-01-13T15:14:01.561Z,36.40
2023-01-13T15:16:34.952Z,32.90
2023-01-13T15:19:06.860Z,47.10
2023-01-13T15:21:38.907Z,50.10
2023-01-13T15:24:10.905Z,40.80
2023-01-13T15:26:42.414Z,24.00
2023-01-13T15:31:44.739Z,19.10
2023-01-13T15:34:16.519Z,25.80
2023-01-13T15:36:48.206Z,28.10
2023-01-13T15:39:19.682Z,31.50
2023-01-13T15:42:08.917Z,34.70
2023-01-13T15:44:58.597Z,33.40
2023-01-13T15:47:30.147Z,37.40
2023-01-13T15:52:31.848Z,23.60
2023-01-13T15:55:03.435Z,28.90
2023-01-13T16:00:08.218Z,38.40
2023-01-13T16:02:39.681Z,35.90
2023-01-13T16:05:11.390Z,38.20
2023-01-13T16:07:42.863Z,37.80
2023-01-13T16:10:19.123Z,37.70
2023-01-13T16:12:50.658Z,36.10
2023-01-13T16:15:25.139Z,34.90
2023-01-13T16:17:57.821Z,38.30
2023-01-13T16:20:29.692Z,36.40
2023-01-13T16:23:01.173Z,29.10
2023-01-13T16:28:02.868Z,28.20
2023-01-13T16:30:35.510Z,26.00
2023-01-13T16:33:08.393Z,28.90
2023-01-13T16:36:07.682Z,22.30
2023-01-13T16:38:31.293Z,31.40
2023-01-13T16:41:03.282Z,28.60
2023-01-13T16:46:07.249Z,42.20
2023-01-13T16:48:38.765Z,39.00
2023-01-13T16:53:40.516Z,34.20
2023-01-13T16:56:25.159Z,29.80
2023-01-13T16:58:58.183Z,25.40
2023-01-13T17:01:31.163Z,29.80
2023-01-13T17:04:03.861Z,29.30
2023-01-13T17:06:39.591Z,35.50
2023-01-13T17:09:18.070Z,53.10
2023-01-13T17:11:53.663Z,45.10
2023-01-13T17:14:26.703Z,34.10
2023-01-13T17:16:59.293Z,47.10
2023-01-13T17:19:31.481Z,46.00
2023-01-13T17:22:05.281Z,36.80
2023-01-13T17:24:38.280Z,43.30
2023-01-13T17:27:10.651Z,38.40
2023-01-13T17:29:46.200Z,28.60
2023-01-13T17:32:19.418Z,43.50
2023-01-13T17:34:51.263Z,33.40
2023-01-13T17:37:25.301Z,35.30
2023-01-13T17:39:57.430Z,36.20
2023-01-13T17:45:00.617Z,33.20
2023-01-13T17:47:32.296Z,51.30
2023-01-13T17:50:06.210Z,44.30
2023-01-13T17:52:38.671Z,41.70
2023-01-13T17:55:11.701Z,33.60
2023-01-13T17:57:43.659Z,51.70
2023-01-13T18:00:16.523Z,50.10
2023-01-13T18:02:51.297Z,38.30
2023-01-13T18:05:23.169Z,37.50
2023-01-13T18:07:55.456Z,53.30
2023-01-13T18:10:27.518Z,34.10
2023-01-13T18:12:59.224Z,35.00
2023-01-13T18:15:31.128Z,35.60
2023-01-13T18:18:03.220Z,33.00
2023-01-13T18:20:52.418Z,47.50
2023-01-13T18:23:42.171Z,41.00
2023-01-13T18:26:38.762Z,40.00
2023-01-13T18:29:10.907Z,45.00
2023-01-13T18:34:12.517Z,50.40
2023-01-13T18:36:44.068Z,38.30
2023-01-13T18:42:02.978Z,45.10
2023-01-13T18:44:34.791Z,39.70
2023-01-13T18:47:06.430Z,36.30
2023-01-13T18:49:37.984Z,48.40
2023-01-13T18:52:10.579Z,42.30
2023-01-13T18:54:42.372Z,58.50
2023-01-13T18:57:14.280Z,41.40
2023-01-13T18:59:46.754Z,37.50
2023-01-13T19:02:19.344Z,29.60
2023-01-13T19:04:51.263Z,40.00
2023-01-13T19:07:26.331Z,37.20
2023-01-13T19:09:59.647Z,42.80
2023-01-13T19:12:31.494Z,27.80
2023-01-13T19:15:03.186Z,30.10
2023-01-13T19:17:36.337Z,44.00
2023-01-13T19:20:09.889Z,41.80
2023-01-13T19:22:41.728Z,33.50
2023-01-13T19:25:13.381Z,28.90
2023-01-13T19:27:45.015Z,44.20
2023-01-13T19:30:17.977Z,40.90
2023-01-13T19:32:49.576Z,33.20
2023-01-13T19:35:21.408Z,46.10
2023-01-13T19:40:22.861Z,50.30
2023-01-13T19:43:12.011Z,43.80
2023-01-13T19:45:45.159Z,47.70
2023-01-13T19:48:17.044Z,33.50
2023-01-13T19:50:50.589Z,34.70
2023-01-13T19:53:22.231Z,33.10
2023-01-13T19:58:24.736Z,43.60
2023-01-13T20:00:56.586Z,39.50
2023-01-13T20:03:31.580Z,39.20
2023-01-13T20:06:09.837Z,41.90
2023-01-13T20:08:42.393Z,46.40
2023-01-13T20:11:26.222Z,44.80
2023-01-13T20:13:57.688Z,34.90
2023-01-13T20:16:29.362Z,36.10
2023-01-13T20:19:01.043Z,25.50
2023-01-13T20:21:32.545Z,31.90
2023-01-13T20:24:04.174Z,39.70
2023-01-13T20:29:06.027Z,45.60
2023-01-13T20:31:37.713Z,46.40
2023-01-13T20:34:09.398Z,52.30
2023-01-13T20:36:43.666Z,51.10
2023-01-13T20:39:17.256Z,56.40
2023-01-13T20:42:06.566Z,46.30
2023-01-13T20:44:38.082Z,50.50
2023-01-13T20:49:39.821Z,37.20
2023-01-13T20:52:11.428Z,39.70
2023-01-13T20:57:13.381Z,33.90
2023-01-13T20:59:45.106Z,47.80
2023-01-13T21:02:17.634Z,32.90
2023-01-13T21:04:49.040Z,55.70
2023-01-13T21:09:50.560Z,45.20
2023-01-13T21:15:22.347Z,41.50
2023-01-13T21:18:11.497Z,42.80
2023-01-13T21:20:43.038Z,44.90
2023-01-13T21:23:14.516Z,42.10
2023-01-13T21:25:46.008Z,47.10
2023-01-13T21:30:50.283Z,54.30
2023-01-13T21:33:21.903Z,71.20
2023-01-13T21:38:23.290Z,49.60
2023-01-13T21:41:02.739Z,65.80
2023-01-13T21:43:48.270Z,48.40
2023-01-13T21:46:37.334Z,42.30
2023-01-13T21:49:08.912Z,47.30
2023-01-13T21:51:40.353Z,44.30
2023-01-13T21:54:11.736Z,43.90
2023-01-13T21:56:43.173Z,47.60
2023-01-13T21:59:14.586Z,42.30
2023-01-13T22:02:24.053Z,34.30
2023-01-13T22:04:37.717Z,41.10
2023-01-13T22:07:09.142Z,36.70
2023-01-13T22:09:40.609Z,48.10
2023-01-13T22:14:42.113Z,38.70
2023-01-13T22:19:47.784Z,33.70
2023-01-13T22:22:19.375Z,38.10
2023-01-13T22:27:22.166Z,48.00
2023-01-13T22:29:53.993Z,54.40
2023-01-13T22:32:25.393Z,37.90
2023-01-13T22:34:56.955Z,33.40
2023-01-13T22:39:58.184Z,43.40
2023-01-13T22:42:29.927Z,42.50
2023-01-13T22:45:01.587Z,59.30
2023-01-13T22:50:03.468Z,54.60
2023-01-13T22:52:35.883Z,45.00
2023-01-13T22:55:08.697Z,41.50
2023-01-13T22:57:47.760Z,36.10
2023-01-13T23:00:21.249Z,46.90
2023-01-13T23:02:52.572Z,42.70
2023-01-13T23:05:23.980Z,51.60
2023-01-13T23:07:55.472Z,40.10
2023-01-13T23:12:56.966Z,44.80
2023-01-13T23:15:28.457Z,42.90
2023-01-13T23:20:30.679Z,41.20
2023-01-13T23:23:02.317Z,45.00
2023-01-13T23:25:33.718Z,44.70
2023-01-13T23:28:05.486Z,50.40
2023-01-13T23:30:36.985Z,43.70
2023-01-13T23:35:38.221Z,36.70
2023-01-13T23:38:09.619Z,51.10
2023-01-13T23:40:41.027Z,60.90
2023-01-13T23:43:12.488Z,34.20
2023-01-13T23:45:43.905Z,46.10
2023-01-13T23:48:15.336Z,54.60
2023-01-13T23:50:46.719Z,42.20
2023-01-13T23:53:18.135Z,54.30
2023-01-13T23:55:49.475Z,43.70
2023-01-13T23:58:20.934Z,59.70
